createdAt,value
2019-03-25T00:00:06.600Z,51.40
2019-03-25T00:02:35.898Z,52.40
2019-03-25T00:05:06.507Z,52.20
2019-03-25T00:07:35.784Z,52.30
2019-03-25T00:10:06.333Z,52.60
2019-03-25T00:12:35.602Z,53.90
2019-03-25T00:15:06.918Z,53.30
2019-03-25T00:17:36.156Z,53.90
2019-03-25T00:20:06.316Z,53.20
2019-03-25T00:22:35.530Z,53.50
2019-03-25T00:25:06.050Z,53.70
2019-03-25T00:27:35.376Z,54.40
2019-03-25T00:30:05.096Z,54.00
2019-03-25T00:32:34.345Z,54.10
2019-03-25T00:35:03.425Z,53.70
2019-03-25T00:37:32.612Z,53.40
2019-03-25T00:40:01.775Z,54.10
2019-03-25T00:42:30.860Z,53.50
2019-03-25T00:45:00.030Z,53.50
2019-03-25T00:47:29.261Z,53.40
2019-03-25T00:49:58.401Z,54.20
2019-03-25T00:52:27.608Z,54.30
2019-03-25T00:54:56.893Z,54.50
2019-03-25T00:57:26.112Z,54.50
2019-03-25T00:59:55.540Z,54.50
2019-03-25T01:02:24.776Z,54.20
2019-03-25T01:04:54.238Z,54.90
2019-03-25T01:07:23.625Z,54.20
2019-03-25T01:09:52.863Z,54.00
2019-03-25T01:12:22.005Z,54.40
2019-03-25T01:14:51.310Z,54.40
2019-03-25T01:17:20.585Z,54.20
2019-03-25T01:19:49.865Z,54.50
2019-03-25T01:22:19.136Z,54.00
2019-03-25T01:24:48.500Z,54.90
2019-03-25T01:27:17.670Z,55.10
2019-03-25T01:29:46.823Z,55.60
2019-03-25T01:32:15.905Z,55.40
2019-03-25T01:34:45.120Z,55.80
2019-03-25T01:37:14.419Z,55.90
2019-03-25T01:39:43.700Z,55.30
2019-03-25T01:42:13.060Z,56.20
2019-03-25T01:44:42.273Z,55.30
2019-03-25T01:47:11.677Z,55.20
2019-03-25T01:49:40.955Z,55.80
2019-03-25T01:52:10.226Z,55.20
2019-03-25T01:54:39.246Z,55.70
2019-03-25T01:57:08.484Z,55.80
2019-03-25T01:59:37.956Z,56.50
2019-03-25T02:02:07.168Z,56.50
2019-03-25T02:04:36.424Z,56.40
2019-03-25T02:07:05.733Z,56.30
2019-03-25T02:09:35.019Z,56.30
2019-03-25T02:12:04.197Z,56.10
2019-03-25T02:14:33.424Z,57.30
2019-03-25T02:17:02.738Z,57.40
2019-03-25T02:19:32.083Z,56.80
2019-03-25T02:22:01.062Z,56.90
2019-03-25T02:24:30.348Z,56.40
2019-03-25T02:26:59.849Z,57.10
2019-03-25T02:29:28.998Z,57.30
2019-03-25T02:31:58.348Z,56.90
2019-03-25T02:34:27.501Z,56.40
2019-03-25T02:36:56.562Z,56.70
2019-03-25T02:39:25.883Z,56.50
2019-03-25T02:41:55.256Z,56.80
2019-03-25T02:44:24.529Z,56.60
2019-03-25T02:46:53.744Z,56.40
2019-03-25T02:49:22.888Z,56.70
2019-03-25T02:51:52.271Z,57.40
2019-03-25T02:54:21.580Z,56.60
2019-03-25T02:56:50.918Z,56.90
2019-03-25T02:59:20.475Z,56.60
2019-03-25T03:01:49.754Z,56.50
2019-03-25T03:04:19.103Z,57.70
2019-03-25T03:06:48.421Z,58.20
2019-03-25T03:09:17.717Z,57.60
2019-03-25T03:11:46.908Z,58.20
2019-03-25T03:14:16.135Z,57.80
2019-03-25T03:16:45.624Z,57.80
2019-03-25T03:19:14.834Z,57.50
2019-03-25T03:21:44.167Z,58.00
2019-03-25T03:24:13.473Z,58.30
2019-03-25T03:26:42.701Z,58.60
2019-03-25T03:29:12.053Z,57.50
2019-03-25T03:31:41.165Z,58.10
2019-03-25T03:34:10.438Z,58.20
2019-03-25T03:36:39.793Z,58.60
2019-03-25T03:39:09.017Z,59.10
2019-03-25T03:41:38.393Z,58.40
2019-03-25T03:44:07.585Z,58.90
2019-03-25T03:46:36.839Z,59.40
2019-03-25T03:49:06.140Z,59.80
2019-03-25T03:51:35.375Z,59.00
2019-03-25T03:54:04.622Z,59.10
2019-03-25T03:56:33.788Z,59.50
2019-03-25T03:59:03.040Z,60.00
2019-03-25T04:01:32.168Z,60.50
2019-03-25T04:04:01.379Z,60.70
2019-03-25T04:06:30.687Z,60.50
2019-03-25T04:08:59.858Z,60.90
2019-03-25T04:11:29.047Z,61.30
2019-03-25T04:13:58.359Z,61.10
2019-03-25T04:16:27.675Z,61.50
2019-03-25T04:18:56.926Z,61.90
2019-03-25T04:21:26.208Z,61.80
2019-03-25T04:23:55.509Z,61.70
2019-03-25T04:26:28.869Z,61.40
2019-03-25T04:28:55.609Z,62.00
2019-03-25T04:31:24.753Z,61.80
2019-03-25T04:33:53.946Z,62.00
2019-03-25T04:36:22.980Z,62.70
2019-03-25T04:38:52.353Z,62.50
2019-03-25T04:41:21.578Z,62.60
2019-03-25T04:43:50.780Z,63.10
2019-03-25T04:46:19.963Z,62.70
2019-03-25T04:48:49.774Z,62.60
2019-03-25T04:51:19.193Z,62.70
2019-03-25T04:53:48.373Z,63.40
2019-03-25T04:56:17.500Z,62.30
2019-03-25T04:58:46.745Z,64.50
2019-03-25T05:01:15.937Z,62.40
2019-03-25T05:03:45.157Z,64.00
2019-03-25T05:06:14.396Z,63.70
2019-03-25T05:08:43.658Z,62.30
2019-03-25T05:11:12.885Z,62.70
2019-03-25T05:13:41.911Z,62.30
2019-03-25T05:16:10.981Z,62.10
2019-03-25T05:18:40.111Z,62.50
2019-03-25T05:21:09.332Z,63.00
2019-03-25T05:23:38.606Z,63.40
2019-03-25T05:26:07.865Z,63.30
2019-03-25T05:28:37.093Z,64.00
2019-03-25T05:31:06.296Z,63.20
2019-03-25T05:33:35.647Z,63.50
2019-03-25T05:36:04.906Z,63.30
2019-03-25T05:38:34.366Z,62.30
2019-03-25T05:41:03.624Z,62.80
2019-03-25T05:43:33.021Z,62.80
2019-03-25T05:46:02.277Z,62.60
2019-03-25T05:48:31.609Z,62.70
2019-03-25T05:51:01.010Z,62.90
2019-03-25T05:53:30.121Z,62.80
2019-03-25T05:55:59.344Z,62.40
2019-03-25T05:58:28.594Z,63.10
2019-03-25T06:00:57.842Z,63.30
2019-03-25T06:03:27.126Z,62.10
2019-03-25T06:05:56.380Z,62.70
2019-03-25T06:08:25.636Z,62.40
2019-03-25T06:10:54.850Z,61.50
2019-03-25T06:13:24.148Z,62.60
2019-03-25T06:15:53.150Z,61.60
2019-03-25T06:18:22.629Z,61.80
2019-03-25T06:20:51.835Z,61.60
2019-03-25T06:23:20.979Z,61.80
2019-03-25T06:25:50.093Z,62.70
2019-03-25T06:28:19.289Z,62.20
2019-03-25T06:30:48.499Z,62.10
2019-03-25T06:33:17.674Z,62.20
2019-03-25T06:35:46.889Z,62.30
2019-03-25T06:38:16.160Z,62.20
2019-03-25T06:40:45.622Z,62.50
2019-03-25T06:43:15.012Z,61.80
2019-03-25T06:45:44.317Z,62.00
2019-03-25T06:48:13.532Z,62.80
2019-03-25T06:50:42.597Z,61.60
2019-03-25T06:53:11.893Z,62.10
2019-03-25T06:55:41.224Z,62.80
2019-03-25T06:58:10.309Z,62.40
2019-03-25T07:00:39.580Z,62.30
2019-03-25T07:03:08.827Z,62.60
2019-03-25T07:05:38.061Z,62.90
2019-03-25T07:08:07.522Z,62.50
2019-03-25T07:10:37.437Z,62.90
2019-03-25T07:13:06.572Z,63.40
2019-03-25T07:15:35.784Z,63.70
2019-03-25T07:18:05.018Z,64.10
2019-03-25T07:20:34.206Z,62.90
2019-03-25T07:23:03.424Z,63.30
2019-03-25T07:25:32.573Z,62.70
2019-03-25T07:28:01.725Z,63.30
2019-03-25T07:30:30.777Z,61.70
2019-03-25T07:33:00.008Z,61.50
2019-03-25T07:35:29.277Z,61.40
2019-03-25T07:37:58.572Z,61.90
2019-03-25T07:40:27.799Z,61.10
2019-03-25T07:42:57.037Z,61.50
2019-03-25T07:45:26.423Z,61.10
2019-03-25T07:47:55.650Z,61.10
2019-03-25T07:50:24.988Z,61.60
2019-03-25T07:52:54.306Z,61.00
2019-03-25T07:55:23.542Z,60.80
2019-03-25T07:57:52.781Z,60.90
2019-03-25T08:00:22.799Z,61.70
2019-03-25T08:02:52.103Z,60.60
2019-03-25T08:05:21.331Z,61.40
2019-03-25T08:07:50.444Z,60.20
2019-03-25T08:10:31.303Z,59.80
2019-03-25T08:13:00.630Z,60.10
2019-03-25T08:15:29.687Z,59.20
2019-03-25T08:17:58.763Z,59.00
2019-03-25T08:22:57.030Z,58.30
2019-03-25T08:25:26.313Z,57.80
2019-03-25T08:28:00.393Z,57.20
2019-03-25T08:30:26.100Z,57.70
2019-03-25T08:32:55.236Z,57.80
2019-03-25T08:35:24.401Z,57.40
2019-03-25T08:37:53.806Z,58.70
2019-03-25T08:40:22.872Z,58.40
2019-03-25T08:42:52.009Z,58.20
2019-03-25T08:45:21.415Z,59.30
2019-03-25T08:47:50.580Z,58.70
2019-03-25T08:50:19.707Z,59.30
2019-03-25T08:52:49.102Z,59.50
2019-03-25T08:55:18.188Z,59.10
2019-03-25T08:57:47.334Z,59.00
2019-03-25T09:00:16.709Z,59.00
2019-03-25T09:02:45.816Z,60.00
2019-03-25T09:05:15.026Z,59.70
2019-03-25T09:07:44.267Z,61.70
2019-03-25T09:10:13.528Z,60.90
2019-03-25T09:12:42.789Z,62.10
2019-03-25T09:15:12.065Z,62.40
2019-03-25T09:17:41.423Z,62.60
2019-03-25T09:20:10.796Z,62.30
2019-03-25T09:22:40.140Z,62.30
2019-03-25T09:25:09.370Z,61.90
2019-03-25T09:27:38.721Z,62.50
2019-03-25T09:30:08.560Z,62.30
2019-03-25T09:32:37.936Z,62.50
2019-03-25T09:35:08.128Z,61.80
2019-03-25T09:37:37.717Z,61.80
2019-03-25T09:40:08.071Z,61.70
2019-03-25T09:42:37.374Z,61.40
2019-03-25T09:45:09.508Z,61.30
2019-03-25T09:47:38.713Z,58.70
2019-03-25T09:50:08.568Z,55.40
2019-03-25T09:52:38.826Z,54.10
2019-03-25T09:55:08.747Z,54.20
2019-03-25T09:57:38.001Z,53.90
2019-03-25T10:00:10.103Z,54.20
2019-03-25T10:05:07.948Z,51.90
2019-03-25T10:07:37.159Z,52.70
2019-03-25T10:10:08.256Z,52.00
2019-03-25T10:12:37.484Z,52.20
2019-03-25T10:15:08.354Z,51.30
2019-03-25T10:17:37.543Z,51.50
2019-03-25T10:20:09.697Z,52.50
2019-03-25T10:22:39.025Z,53.00
2019-03-25T10:25:08.366Z,54.20
2019-03-25T10:28:31.949Z,55.70
2019-03-25T10:31:01.500Z,58.50
2019-03-25T10:33:30.921Z,59.30
2019-03-25T10:36:00.158Z,59.80
2019-03-25T10:38:29.285Z,60.00
2019-03-25T10:40:58.528Z,57.30
2019-03-25T10:43:27.761Z,55.40
2019-03-25T10:45:57.001Z,52.40
2019-03-25T10:48:26.346Z,51.10
2019-03-25T10:50:55.588Z,50.00
2019-03-25T10:53:24.924Z,49.10
2019-03-25T10:55:54.072Z,49.00
2019-03-25T10:58:23.344Z,49.00
2019-03-25T11:00:52.641Z,50.30
2019-03-25T11:03:21.770Z,50.90
2019-03-25T11:05:51.037Z,52.80
2019-03-25T11:08:20.360Z,54.60
2019-03-25T11:10:49.748Z,56.10
2019-03-25T11:13:18.945Z,56.00
2019-03-25T11:15:48.118Z,54.10
2019-03-25T11:18:17.147Z,53.00
2019-03-25T11:20:46.420Z,52.10
2019-03-25T11:23:15.597Z,50.20
2019-03-25T11:25:44.843Z,49.40
2019-03-25T11:28:14.355Z,48.00
2019-03-25T11:30:49.714Z,48.10
2019-03-25T11:33:18.966Z,49.10
2019-03-25T11:35:48.081Z,47.40
2019-03-25T11:38:17.369Z,46.90
2019-03-25T11:40:46.341Z,46.50
2019-03-25T11:43:15.613Z,47.00
2019-03-25T11:45:44.909Z,47.30
2019-03-25T11:48:14.026Z,47.20
2019-03-25T11:50:43.269Z,46.30
2019-03-25T11:53:12.485Z,45.00
2019-03-25T11:55:41.545Z,45.00
2019-03-25T11:58:10.684Z,44.60
2019-03-25T12:00:39.911Z,44.20
2019-03-25T12:03:09.213Z,43.10
2019-03-25T12:05:40.632Z,43.40
2019-03-25T12:08:09.292Z,42.60
2019-03-25T12:10:38.345Z,42.70
2019-03-25T12:13:07.710Z,43.00
2019-03-25T12:15:36.752Z,43.00
2019-03-25T12:18:06.015Z,43.80
2019-03-25T12:20:35.378Z,45.50
2019-03-25T12:23:04.649Z,45.80
2019-03-25T12:25:34.230Z,46.30
2019-03-25T12:28:03.562Z,47.00
2019-03-25T12:30:32.909Z,48.30
2019-03-25T12:33:04.280Z,49.00
2019-03-25T12:35:33.117Z,49.00
2019-03-25T12:38:02.355Z,49.20
2019-03-25T12:40:31.569Z,48.80
2019-03-25T12:43:00.818Z,47.80
2019-03-25T12:45:30.103Z,45.50
2019-03-25T12:47:59.434Z,45.30
2019-03-25T12:50:28.603Z,45.30
2019-03-25T12:52:57.781Z,44.50
2019-03-25T12:55:27.117Z,46.00
2019-03-25T12:57:56.370Z,45.50
2019-03-25T13:00:42.912Z,45.70
2019-03-25T13:03:12.116Z,46.10
2019-03-25T13:05:41.265Z,47.60
2019-03-25T13:08:10.648Z,49.40
2019-03-25T13:10:39.736Z,49.70
2019-03-25T13:13:09.303Z,49.70
2019-03-25T13:15:38.589Z,51.20
2019-03-25T13:18:07.935Z,51.70
2019-03-25T13:20:37.206Z,52.40
2019-03-25T13:23:06.314Z,53.00
2019-03-25T13:25:36.024Z,52.90
2019-03-25T13:28:05.315Z,52.80
2019-03-25T13:30:34.513Z,52.20
2019-03-25T13:33:03.611Z,50.40
2019-03-25T13:35:36.366Z,50.00
2019-03-25T13:38:05.759Z,50.90
2019-03-25T13:40:35.009Z,53.70
2019-03-25T13:43:04.198Z,54.30
2019-03-25T13:45:33.474Z,56.20
2019-03-25T13:48:02.639Z,55.70
2019-03-25T13:50:32.020Z,55.90
2019-03-25T13:53:01.116Z,56.10
2019-03-25T13:55:30.448Z,55.80
2019-03-25T13:57:59.732Z,55.70
2019-03-25T14:00:38.776Z,55.80
2019-03-25T14:03:08.109Z,55.60
2019-03-25T14:05:37.189Z,55.80
2019-03-25T14:08:06.483Z,55.30
2019-03-25T14:10:35.548Z,56.00
2019-03-25T14:13:04.759Z,56.40
2019-03-25T14:15:33.945Z,56.40
2019-03-25T14:18:03.089Z,58.20
2019-03-25T14:20:32.268Z,58.30
2019-03-25T14:23:01.281Z,58.80
2019-03-25T14:25:30.536Z,58.60
2019-03-25T14:27:59.672Z,60.70
2019-03-25T14:30:28.961Z,60.30
2019-03-25T14:32:58.217Z,59.20
2019-03-25T14:35:27.520Z,60.10
2019-03-25T14:37:56.665Z,59.40
2019-03-25T14:40:25.795Z,58.80
2019-03-25T14:42:55.187Z,58.60
2019-03-25T14:45:26.757Z,59.20
2019-03-25T14:47:55.309Z,59.30
2019-03-25T14:50:24.678Z,58.10
2019-03-25T14:52:53.752Z,57.80
2019-03-25T14:55:23.150Z,58.00
2019-03-25T14:57:52.292Z,57.30
2019-03-25T15:00:25.424Z,59.00
2019-03-25T15:02:52.220Z,57.40
2019-03-25T15:05:21.388Z,57.30
2019-03-25T15:07:50.464Z,57.50
2019-03-25T15:10:19.533Z,57.30
2019-03-25T15:12:48.716Z,57.60
2019-03-25T15:15:17.894Z,56.60
2019-03-25T15:17:47.004Z,55.50
2019-03-25T15:20:16.230Z,57.90
2019-03-25T15:22:45.416Z,57.20
2019-03-25T15:25:15.025Z,58.00
2019-03-25T15:27:44.177Z,57.00
2019-03-25T15:30:14.027Z,56.90
2019-03-25T15:32:43.181Z,57.10
2019-03-25T15:35:12.512Z,56.90
2019-03-25T15:37:41.682Z,57.80
2019-03-25T15:40:11.923Z,57.30
2019-03-25T15:42:41.287Z,57.30
2019-03-25T15:45:10.600Z,57.00
2019-03-25T15:47:40.250Z,56.40
2019-03-25T15:50:09.781Z,56.10
2019-03-25T15:52:39.233Z,55.60
2019-03-25T15:55:08.727Z,55.40
2019-03-25T15:57:39.757Z,56.30
2019-03-25T16:00:14.929Z,54.80
2019-03-25T16:02:44.033Z,54.60
2019-03-25T16:05:13.232Z,54.00
2019-03-25T16:07:43.964Z,53.50
2019-03-25T16:10:14.577Z,52.90
2019-03-25T16:12:43.931Z,53.20
2019-03-25T16:15:13.098Z,53.70
2019-03-25T16:17:43.304Z,53.00
2019-03-25T16:20:12.723Z,53.00
2019-03-25T16:22:41.929Z,53.20
2019-03-25T16:25:13.998Z,52.20
2019-03-25T16:27:43.081Z,51.50
2019-03-25T16:30:12.459Z,51.30
2019-03-25T16:32:41.797Z,51.90
2019-03-25T16:35:11.599Z,51.50
2019-03-25T16:37:40.805Z,51.60
2019-03-25T16:40:10.063Z,51.50
2019-03-25T16:42:40.200Z,51.40
2019-03-25T16:45:10.681Z,50.90
2019-03-25T16:47:39.843Z,51.00
2019-03-25T16:50:09.085Z,51.10
2019-03-25T16:52:38.212Z,51.10
2019-03-25T16:55:07.498Z,51.80
2019-03-25T16:57:36.760Z,51.20
2019-03-25T17:00:07.092Z,51.80
2019-03-25T17:02:36.144Z,50.90
2019-03-25T17:05:06.343Z,51.60
2019-03-25T17:07:35.660Z,51.10
2019-03-25T17:10:06.658Z,50.80
2019-03-25T17:12:39.399Z,51.00
2019-03-25T17:15:08.497Z,51.10
2019-03-25T17:17:37.928Z,51.30
2019-03-25T17:20:07.151Z,51.40
2019-03-25T17:22:36.360Z,50.80
2019-03-25T17:25:06.609Z,50.70
2019-03-25T17:27:35.981Z,51.60
2019-03-25T17:30:08.280Z,51.80
2019-03-25T17:32:37.562Z,51.60
2019-03-25T17:35:07.821Z,52.10
2019-03-25T17:37:36.933Z,51.40
2019-03-25T17:40:08.442Z,51.60
2019-03-25T17:42:37.486Z,51.50
2019-03-25T17:45:07.792Z,52.10
2019-03-25T17:47:37.072Z,51.60
2019-03-25T17:50:07.569Z,51.80
2019-03-25T17:52:36.726Z,51.90
2019-03-25T17:55:06.946Z,51.80
2019-03-25T17:57:36.201Z,52.60
2019-03-25T18:00:08.298Z,52.60
2019-03-25T18:02:37.477Z,52.40
2019-03-25T18:05:07.991Z,52.20
2019-03-25T18:07:37.192Z,52.50
2019-03-25T18:10:08.256Z,53.20
2019-03-25T18:12:39.216Z,52.60
2019-03-25T18:15:11.747Z,52.70
2019-03-25T18:17:40.809Z,52.90
2019-03-25T18:20:17.991Z,52.80
2019-03-25T18:22:40.333Z,52.90
2019-03-25T18:25:09.492Z,53.00
2019-03-25T18:27:38.744Z,53.20
2019-03-25T18:30:08.103Z,53.50
2019-03-25T18:32:37.300Z,53.70
2019-03-25T18:35:07.184Z,53.30
2019-03-25T18:37:36.593Z,53.80
2019-03-25T18:40:06.648Z,53.10
2019-03-25T18:42:35.886Z,53.30
2019-03-25T18:45:05.766Z,53.90
2019-03-25T18:47:35.137Z,53.50
2019-03-25T18:50:08.569Z,53.30
2019-03-25T18:52:37.743Z,53.30
2019-03-25T18:55:07.347Z,53.40
2019-03-25T18:57:36.517Z,53.40
2019-03-25T19:00:31.991Z,53.90
2019-03-25T19:03:01.325Z,53.90
2019-03-25T19:05:30.422Z,54.10
2019-03-25T19:08:01.466Z,53.40
2019-03-25T19:10:30.701Z,53.40
2019-03-25T19:13:00.012Z,53.40
2019-03-25T19:15:29.283Z,53.50
2019-03-25T19:17:58.578Z,54.10
2019-03-25T19:20:27.768Z,53.50
2019-03-25T19:22:56.946Z,53.70
2019-03-25T19:25:26.186Z,53.40
2019-03-25T19:27:55.351Z,53.60
2019-03-25T19:30:28.979Z,54.10
2019-03-25T19:32:58.154Z,53.60
2019-03-25T19:35:29.884Z,53.50
2019-03-25T19:37:58.229Z,53.80
2019-03-25T19:40:27.496Z,53.60
2019-03-25T19:43:01.253Z,53.70
2019-03-25T19:45:30.503Z,53.90
2019-03-25T19:47:59.889Z,53.80
2019-03-25T19:50:29.209Z,53.70
2019-03-25T19:52:58.815Z,53.80
2019-03-25T19:55:28.253Z,54.70
2019-03-25T19:57:57.851Z,54.00
2019-03-25T20:00:35.925Z,54.10
2019-03-25T20:03:05.688Z,54.30
2019-03-25T20:05:35.011Z,54.20
2019-03-25T20:08:04.241Z,54.90
2019-03-25T20:10:34.893Z,54.50
2019-03-25T20:13:04.221Z,54.40
2019-03-25T20:15:45.576Z,54.50
2019-03-25T20:18:04.393Z,54.50
2019-03-25T20:20:33.805Z,55.20
2019-03-25T20:23:03.077Z,54.70
2019-03-25T20:25:32.273Z,55.30
2019-03-25T20:28:03.460Z,54.80
2019-03-25T20:30:32.812Z,55.60
2019-03-25T20:33:01.933Z,55.40
2019-03-25T20:35:31.438Z,54.90
2019-03-25T20:38:00.859Z,54.90
2019-03-25T20:40:30.065Z,55.60
2019-03-25T20:42:59.635Z,55.00
2019-03-25T20:45:28.941Z,55.00
2019-03-25T20:47:58.233Z,54.90
2019-03-25T20:50:27.630Z,55.00
2019-03-25T20:52:56.794Z,55.70
2019-03-25T20:55:26.235Z,55.10
2019-03-25T20:57:55.610Z,55.20
2019-03-25T21:00:50.294Z,55.30
2019-03-25T21:03:18.638Z,55.80
2019-03-25T21:05:47.703Z,55.60
2019-03-25T21:08:16.995Z,55.70
2019-03-25T21:10:46.172Z,55.50
2019-03-25T21:13:15.479Z,55.70
2019-03-25T21:15:44.806Z,56.50
2019-03-25T21:18:14.039Z,55.70
2019-03-25T21:20:43.314Z,55.90
2019-03-25T21:23:12.643Z,55.80
2019-03-25T21:25:41.821Z,56.50
2019-03-25T21:28:10.981Z,55.80
2019-03-25T21:30:47.963Z,55.80
2019-03-25T21:33:11.085Z,55.80
2019-03-25T21:35:40.427Z,56.40
2019-03-25T21:38:09.518Z,55.70
2019-03-25T21:40:38.861Z,55.80
2019-03-25T21:43:08.362Z,55.90
2019-03-25T21:45:37.633Z,56.10
2019-03-25T21:48:06.895Z,56.10
2019-03-25T21:50:36.161Z,56.30
2019-03-25T21:53:05.204Z,56.70
2019-03-25T21:55:34.437Z,56.40
2019-03-25T21:58:03.668Z,56.40
2019-03-25T22:00:32.977Z,57.10
2019-03-25T22:03:11.461Z,56.50
2019-03-25T22:05:32.880Z,56.40
2019-03-25T22:08:02.004Z,56.60
2019-03-25T22:10:31.315Z,57.40
2019-03-25T22:13:00.489Z,56.90
2019-03-25T22:15:29.740Z,56.90
2019-03-25T22:17:58.744Z,57.60
2019-03-25T22:20:28.104Z,57.70
2019-03-25T22:22:57.373Z,57.80
2019-03-25T22:25:26.605Z,57.20
2019-03-25T22:27:55.924Z,57.40
2019-03-25T22:30:25.962Z,57.20
2019-03-25T22:32:55.241Z,57.50
2019-03-25T22:35:24.217Z,57.40
2019-03-25T22:37:53.360Z,57.30
2019-03-25T22:40:22.605Z,58.30
2019-03-25T22:42:51.926Z,58.30
2019-03-25T22:45:28.784Z,58.40
2019-03-25T22:47:58.074Z,58.10
2019-03-25T22:50:29.617Z,58.20
2019-03-25T22:52:58.885Z,58.20
2019-03-25T22:55:28.130Z,58.50
2019-03-25T22:57:57.445Z,57.90
2019-03-25T23:00:28.183Z,58.10
2019-03-25T23:02:57.276Z,58.30
2019-03-25T23:05:26.420Z,58.20
2019-03-25T23:07:55.700Z,58.00
2019-03-25T23:10:24.977Z,58.10
2019-03-25T23:12:54.281Z,58.10
2019-03-25T23:15:23.466Z,58.30
2019-03-25T23:17:52.669Z,58.40
2019-03-25T23:20:21.865Z,59.00
2019-03-25T23:22:51.128Z,59.40
2019-03-25T23:25:20.320Z,58.60
2019-03-25T23:27:49.636Z,58.30
2019-03-25T23:30:18.845Z,59.00
2019-03-25T23:32:48.138Z,59.00
2019-03-25T23:35:17.274Z,58.30
2019-03-25T23:37:46.483Z,58.40
2019-03-25T23:40:15.715Z,59.00
2019-03-25T23:42:45.105Z,59.10
2019-03-25T23:45:14.409Z,58.50
2019-03-25T23:47:43.748Z,59.00
2019-03-25T23:50:13.035Z,58.60
2019-03-25T23:52:42.217Z,59.10
2019-03-25T23:55:11.555Z,59.30
2019-03-25T23:57:40.748Z,59.00
